Time;durP1;ratioP1;P1;durP2;ratioP2;P2;SDS_P1;SDS_P2;PMS_P1;PMS_P2;Temp;Humidity;BMP_temperature;BMP_pressure;BME280_temperature;BME280_humidity;BME280_pressure;Samples;Min_cycle;Max_cycle;Signal;HPM_P1;HPM_P2
2021/03/17 00:00:28;;;;;;;0.63;0.60;;;18.10;32.30;;;;;;8392810;28;20082;-58
2021/03/17 00:04:29;;;;;;;1.42;0.80;;;18.00;32.30;;;;;;8393251;28;20047;-58
2021/03/17 00:08:29;;;;;;;0.60;0.60;;;18.10;32.30;;;;;;8395246;28;20029;-57
2021/03/17 00:12:30;;;;;;;0.87;0.70;;;18.10;32.30;;;;;;8392631;28;20123;-58
2021/03/17 00:16:30;;;;;;;1.23;0.80;;;18.10;32.30;;;;;;8392502;28;20047;-57
2021/03/17 00:20:31;;;;;;;1.27;0.90;;;18.00;32.30;;;;;;8390967;28;20489;-58
2021/03/17 00:24:32;;;;;;;0.65;0.60;;;18.00;32.30;;;;;;8393011;28;20035;-58
2021/03/17 00:28:32;;;;;;;0.93;0.83;;;18.00;32.30;;;;;;8396607;28;20116;-57
2021/03/17 00:32:33;;;;;;;0.77;0.77;;;18.00;32.30;;;;;;8390525;28;20029;-58
2021/03/17 00:36:34;;;;;;;1.17;0.80;;;18.00;32.30;;;;;;8392290;28;20090;-57
2021/03/17 00:40:35;;;;;;;0.80;0.70;;;18.00;32.30;;;;;;8397855;28;20031;-57
2021/03/17 00:44:36;;;;;;;0.85;0.80;;;18.00;32.30;;;;;;8428063;28;20442;-57
2021/03/17 00:48:36;;;;;;;1.13;0.80;;;18.00;32.30;;;;;;8394338;28;20119;-57
2021/03/17 00:52:37;;;;;;;1.00;0.60;;;18.00;32.30;;;;;;8391442;28;20032;-57
2021/03/17 00:56:38;;;;;;;1.00;0.90;;;18.00;32.90;;;;;;8389803;28;20528;-57
2021/03/17 01:00:38;;;;;;;1.03;0.70;;;18.00;32.30;;;;;;8392222;28;20496;-58
2021/03/17 01:04:39;;;;;;;0.93;0.70;;;17.90;32.30;;;;;;8394450;28;20064;-57
2021/03/17 01:08:41;;;;;;;1.10;0.90;;;17.90;32.30;;;;;;8389744;28;20024;-58
2021/03/17 01:12:42;;;;;;;;;;;17.90;32.30;;;;;;8391579;28;20033;-56
2021/03/17 01:16:42;;;;;;;0.70;0.67;;;17.90;32.30;;;;;;8391372;28;19931;-57
2021/03/17 01:20:43;;;;;;;1.93;0.83;;;17.90;32.30;;;;;;8393834;28;20024;-57
2021/03/17 01:24:43;;;;;;;0.50;0.50;;;17.90;32.30;;;;;;8391147;28;20037;-57
2021/03/17 01:28:44;;;;;;;0.60;0.60;;;17.90;32.30;;;;;;8390804;28;20032;-57
2021/03/17 01:32:44;;;;;;;2.00;0.87;;;17.90;32.30;;;;;;8389036;28;20044;-57
2021/03/17 01:36:45;;;;;;;0.67;0.67;;;17.90;32.30;;;;;;8395373;28;20063;-57
2021/03/17 01:40:46;;;;;;;1.63;1.10;;;17.90;32.30;;;;;;8389488;28;20359;-56
2021/03/17 01:44:47;;;;;;;0.95;0.73;;;17.90;32.30;;;;;;8390637;28;20029;-57
2021/03/17 01:48:47;;;;;;;1.10;0.90;;;17.90;32.30;;;;;;8390731;28;20051;-57
2021/03/17 01:52:48;;;;;;;1.77;0.80;;;17.90;32.30;;;;;;8388641;28;20035;-57
2021/03/17 01:56:49;;;;;;;0.93;0.80;;;17.90;32.30;;;;;;8395122;28;20040;-57
2021/03/17 02:00:50;;;;;;;0.80;0.80;;;17.90;32.30;;;;;;8390666;28;20259;-57
2021/03/17 02:04:51;;;;;;;0.70;0.70;;;17.90;32.30;;;;;;8388572;28;20320;-57
2021/03/17 02:08:51;;;;;;;1.20;0.90;;;17.90;32.30;;;;;;8390283;28;20029;-57
2021/03/17 02:13:33;;;;;;;1.80;0.90;;;17.80;32.30;;;;;;8396949;28;20040;-57
2021/03/17 02:17:36;;;;;;;0.68;0.68;;;17.80;32.30;;;;;;8364900;28;20075;-57
2021/03/17 02:21:52;;;;;;;1.25;0.70;;;17.80;32.30;;;;;;8388468;28;20041;-57
2021/03/17 02:26:22;;;;;;;1.40;0.98;;;17.80;32.30;;;;;;8394653;28;20032;-57
2021/03/17 02:30:23;;;;;;;1.02;0.70;;;17.80;32.30;;;;;;8395794;28;20044;-57
2021/03/17 02:34:25;;;;;;;0.80;0.67;;;17.80;32.30;;;;;;8396527;28;20400;-58
2021/03/17 02:38:28;;;;;;;0.70;0.60;;;17.80;32.30;;;;;;8432106;28;20028;-57
2021/03/17 02:42:58;;;;;;;0.50;0.50;;;17.80;32.30;;;;;;8403870;28;20482;-57
2021/03/17 02:47:01;;;;;;;0.82;0.70;;;17.80;32.30;;;;;;8393691;28;20119;-57
2021/03/17 02:51:08;;;;;;;0.57;0.55;;;17.80;32.30;;;;;;8395293;28;20123;-57
2021/03/17 02:55:11;;;;;;;0.40;0.40;;;17.80;32.40;;;;;;8395007;28;20041;-57
2021/03/17 02:59:16;;;;;;;0.65;0.65;;;17.70;32.30;;;;;;8397689;28;20078;-57
2021/03/17 03:03:19;;;;;;;1.25;0.57;;;17.80;32.40;;;;;;8394882;28;20448;-57
2021/03/17 03:07:22;;;;;;;0.63;0.63;;;17.70;32.30;;;;;;8395468;28;20036;-57
2021/03/17 03:11:23;;;;;;;0.65;0.65;;;17.70;32.30;;;;;;8393044;28;20044;-57
2021/03/17 03:15:28;;;;;;;0.77;0.60;;;17.70;32.30;;;;;;8399049;28;20174;-57
2021/03/17 03:19:32;;;;;;;0.55;0.52;;;17.70;32.30;;;;;;8394494;28;20123;-57
2021/03/17 03:23:34;;;;;;;0.52;0.52;;;17.70;32.30;;;;;;8392890;28;20033;-57
2021/03/17 03:27:36;;;;;;;0.70;0.70;;;17.70;32.40;;;;;;8404891;28;20032;-57
2021/03/17 03:31:37;;;;;;;0.70;0.50;;;17.70;32.30;;;;;;8426465;28;20032;-57
2021/03/17 03:35:38;;;;;;;1.27;0.80;;;17.70;32.30;;;;;;8430279;28;20141;-57
2021/03/17 03:39:39;;;;;;;0.50;0.50;;;17.70;32.30;;;;;;8401709;28;20083;-57
2021/03/17 03:43:39;;;;;;;0.83;0.80;;;17.70;32.30;;;;;;8393819;28;20085;-57
2021/03/17 03:47:42;;;;;;;0.93;0.70;;;17.70;32.30;;;;;;8391976;28;20035;-57
2021/03/17 03:52:04;;;;;;;0.88;0.60;;;17.70;32.30;;;;;;8398033;28;20095;-57
2021/03/17 03:56:13;;;;;;;0.60;0.60;;;17.70;32.30;;;;;;8391816;28;20045;-56
2021/03/17 04:00:21;;;;;;;0.50;0.50;;;17.70;32.90;;;;;;8393400;28;20036;-57
2021/03/17 04:04:24;;;;;;;0.60;0.60;;;17.70;32.40;;;;;;8393939;28;20373;-57
2021/03/17 04:08:26;;;;;;;0.52;0.52;;;17.70;32.40;;;;;;8391122;28;20043;-57
2021/03/17 04:12:27;;;;;;;0.77;0.57;;;17.70;32.40;;;;;;8397322;28;20049;-57
2021/03/17 04:16:29;;;;;;;1.10;0.70;;;17.70;32.40;;;;;;8392538;28;20055;-57
2021/03/17 04:20:34;;;;;;;0.65;0.52;;;17.60;32.40;;;;;;8390890;28;20052;-57
2021/03/17 04:24:37;;;;;;;0.93;0.60;;;17.60;32.40;;;;;;8392409;28;20032;-57
2021/03/17 04:28:39;;;;;;;0.50;0.50;;;17.60;32.40;;;;;;8394210;28;20087;-57
2021/03/17 04:32:43;;;;;;;0.68;0.63;;;17.60;32.40;;;;;;8393611;28;20482;-57
2021/03/17 04:36:45;;;;;;;0.63;0.63;;;17.60;32.40;;;;;;8390955;28;20044;-57
2021/03/17 04:40:46;;;;;;;0.50;0.50;;;17.60;32.40;;;;;;8390899;28;20103;-53
2021/03/17 04:44:48;;;;;;;0.60;0.60;;;17.70;32.40;;;;;;8391684;28;20048;-57
2021/03/17 04:48:48;;;;;;;;;;;17.70;32.70;;;;;;8396443;28;20055;-57
2021/03/17 04:52:50;;;;;;;1.52;0.60;;;17.70;32.40;;;;;;8390016;28;20003;-57
2021/03/17 04:56:52;;;;;;;0.98;0.82;;;17.70;32.40;;;;;;8391345;28;20052;-57
2021/03/17 05:00:53;;;;;;;0.60;0.50;;;17.70;32.40;;;;;;8391384;28;20371;-57
2021/03/17 05:04:54;;;;;;;;;;;17.80;32.40;;;;;;8394779;28;20396;-58
2021/03/17 05:08:55;;;;;;;0.82;0.82;;;17.70;32.40;;;;;;8391152;28;19916;-57
2021/03/17 05:12:57;;;;;;;0.88;0.70;;;17.70;32.40;;;;;;8391371;28;20037;-57
2021/03/17 05:17:00;;;;;;;0.55;0.55;;;17.70;32.30;;;;;;8389296;28;20044;-57
2021/03/17 05:21:02;;;;;;;0.57;0.50;;;17.70;32.30;;;;;;8391053;28;20383;-57
2021/03/17 05:25:08;;;;;;;0.85;0.60;;;17.80;32.40;;;;;;8395598;28;20040;-57
2021/03/17 05:29:09;;;;;;;0.68;0.63;;;17.70;32.30;;;;;;8389721;28;20032;-58
2021/03/17 05:33:12;;;;;;;1.05;0.70;;;17.70;32.30;;;;;;8390728;28;20036;-56
2021/03/17 05:37:12;;;;;;;2.40;0.60;;;17.70;32.30;;;;;;8390701;28;20494;-58
2021/03/17 05:41:13;;;;;;;0.70;0.70;;;17.70;32.30;;;;;;8393613;28;20110;-57
2021/03/17 05:45:17;;;;;;;0.52;0.52;;;17.70;32.40;;;;;;8390525;28;20040;-57
2021/03/17 05:49:19;;;;;;;0.77;0.65;;;17.70;32.40;;;;;;8396969;28;20040;-57
2021/03/17 05:53:19;;;;;;;0.90;0.50;;;17.70;32.40;;;;;;8395301;28;20102;-57
2021/03/17 05:57:20;;;;;;;0.60;0.60;;;17.60;32.40;;;;;;8397249;28;20036;-57
2021/03/17 06:01:21;;;;;;;0.80;0.70;;;17.60;32.40;;;;;;8401485;28;20058;-57
2021/03/17 06:05:23;;;;;;;0.65;0.63;;;17.60;32.40;;;;;;8395414;28;20123;-57
2021/03/17 06:09:24;;;;;;;;;;;17.60;32.30;;;;;;8397292;28;20032;-57
2021/03/17 06:13:27;;;;;;;0.52;0.52;;;17.60;32.40;;;;;;8396343;28;19920;-56
2021/03/17 06:17:30;;;;;;;0.63;0.63;;;17.60;32.40;;;;;;8399256;28;20029;-57
2021/03/17 06:21:30;;;;;;;0.75;0.70;;;17.60;32.40;;;;;;8396146;28;20036;-57
2021/03/17 06:25:32;;;;;;;0.70;0.60;;;17.50;32.40;;;;;;8396192;28;20132;-57
2021/03/17 06:29:32;;;;;;;0.75;0.75;;;17.60;32.50;;;;;;8394389;28;20112;-57
2021/03/17 06:33:33;;;;;;;0.63;0.60;;;17.50;32.40;;;;;;8395994;28;20045;-58
2021/03/17 06:37:38;;;;;;;0.60;0.60;;;17.50;32.50;;;;;;8400262;28;20037;-58
2021/03/17 06:41:53;;;;;;;0.60;0.60;;;17.50;32.50;;;;;;8393889;28;20111;-58
2021/03/17 06:46:02;;;;;;;0.60;0.60;;;17.60;32.40;;;;;;8395437;28;20038;-58
2021/03/17 06:50:08;;;;;;;1.08;0.70;;;17.60;32.40;;;;;;8393789;28;20045;-58
2021/03/17 06:54:09;;;;;;;0.55;0.50;;;17.70;32.40;;;;;;8399983;28;20036;-57
2021/03/17 06:58:10;;;;;;;;;;;17.80;32.30;;;;;;8426874;28;20105;-58
2021/03/17 07:02:18;;;;;;;0.70;0.60;;;17.80;32.20;;;;;;8402039;28;20306;-58
2021/03/17 07:06:18;;;;;;;0.80;0.55;;;17.90;32.30;;;;;;8393475;28;20032;-58
2021/03/17 07:10:38;;;;;;;0.60;0.53;;;17.90;32.30;;;;;;8392864;28;20033;-58
2021/03/17 07:14:40;;;;;;;0.82;0.70;;;17.90;32.20;;;;;;8395612;28;20044;-58
2021/03/17 07:18:40;;;;;;;0.60;0.60;;;18.00;32.20;;;;;;8392692;28;20064;-58
2021/03/17 07:22:41;;;;;;;0.63;0.60;;;18.00;32.10;;;;;;8392530;28;20394;-58
2021/03/17 07:26:43;;;;;;;0.67;0.60;;;18.00;32.20;;;;;;8390888;28;20032;-58
2021/03/17 07:30:44;;;;;;;1.35;0.60;;;18.10;32.20;;;;;;8392623;28;20040;-58
2021/03/17 07:34:44;;;;;;;0.90;0.80;;;18.10;32.10;;;;;;8396549;28;20040;-58
2021/03/17 07:38:45;;;;;;;1.00;0.80;;;18.20;32.20;;;;;;8391225;28;20032;-56
2021/03/17 07:42:46;;;;;;;1.07;0.97;;;18.20;32.20;;;;;;8391862;28;20058;-58
2021/03/17 07:46:52;;;;;;;0.80;0.80;;;18.20;32.20;;;;;;8393850;28;20162;-57
2021/03/17 07:50:55;;;;;;;0.70;0.70;;;18.20;32.20;;;;;;8430023;28;20028;-58
2021/03/17 07:55:05;;;;;;;0.75;0.75;;;18.30;32.20;;;;;;8395908;28;20044;-58
2021/03/17 07:59:06;;;;;;;0.85;0.80;;;18.30;32.20;;;;;;8389411;28;20048;-58
2021/03/17 08:03:07;;;;;;;0.70;0.70;;;18.40;32.20;;;;;;8391350;28;20032;-58
2021/03/17 08:07:08;;;;;;;0.60;0.60;;;18.30;32.10;;;;;;8392175;28;20081;-58
2021/03/17 08:11:14;;;;;;;0.70;0.70;;;18.40;32.30;;;;;;8360599;28;20035;-58
2021/03/17 08:15:16;;;;;;;1.25;0.80;;;18.50;32.20;;;;;;8407527;28;20079;-56
2021/03/17 08:19:30;;;;;;;0.77;0.70;;;18.50;32.20;;;;;;8408805;28;20449;-58
2021/03/17 08:23:44;;;;;;;1.25;0.80;;;18.50;32.20;;;;;;8388902;28;20115;-58
2021/03/17 08:27:45;;;;;;;0.60;0.60;;;18.50;32.20;;;;;;8395678;28;20040;-58
2021/03/17 08:31:50;;;;;;;0.60;0.60;;;18.50;32.20;;;;;;8390490;28;20405;-56
2021/03/17 08:36:02;;;;;;;0.90;0.80;;;18.60;32.20;;;;;;8392231;28;20356;-58
2021/03/17 08:40:03;;;;;;;0.70;0.70;;;18.60;32.20;;;;;;8406321;28;20035;-59
2021/03/17 08:44:18;;;;;;;0.77;0.75;;;18.60;32.10;;;;;;8418307;28;20067;-58
2021/03/17 08:49:07;;;;;;;0.90;0.70;;;18.60;32.10;;;;;;8396375;28;20037;-58
2021/03/17 08:53:08;;;;;;;0.57;0.57;;;18.60;32.10;;;;;;8360910;28;20044;-58
2021/03/17 08:57:13;;;;;;;0.70;0.70;;;18.70;32.10;;;;;;8385890;28;20497;-58
2021/03/17 09:01:31;;;;;;;0.70;0.70;;;18.70;32.10;;;;;;8391585;28;20393;-58
2021/03/17 09:05:33;;;;;;;1.13;0.70;;;18.70;32.10;;;;;;8399744;28;20032;-58
2021/03/17 09:09:47;;;;;;;1.25;0.90;;;18.70;32.10;;;;;;8424285;28;20111;-58
2021/03/17 09:13:49;;;;;;;1.58;0.95;;;18.70;32.10;;;;;;8394183;28;20048;-57
2021/03/17 09:17:49;;;;;;;0.70;0.60;;;18.80;32.00;;;;;;8391661;28;20037;-58
2021/03/17 09:21:49;;;;;;;0.60;0.60;;;18.80;32.00;;;;;;8390530;28;20040;-58
2021/03/17 09:25:51;;;;;;;0.70;0.57;;;18.90;32.00;;;;;;8389581;28;20037;-58
2021/03/17 09:29:52;;;;;;;1.10;0.80;;;18.80;32.00;;;;;;8395111;28;20029;-58
2021/03/17 09:33:53;;;;;;;0.88;0.80;;;18.90;32.10;;;;;;8390878;28;20072;-58
2021/03/17 09:38:01;;;;;;;0.80;0.80;;;18.90;32.00;;;;;;8389687;28;20032;-58
2021/03/17 09:42:02;;;;;;;0.60;0.60;;;18.90;32.00;;;;;;8380139;28;20025;-58
2021/03/17 09:46:28;;;;;;;0.87;0.60;;;18.90;32.00;;;;;;8359398;28;20082;-58
2021/03/17 09:50:29;;;;;;;0.50;0.50;;;18.90;32.00;;;;;;8393555;28;20059;-58
2021/03/17 09:54:32;;;;;;;0.93;0.70;;;18.90;32.00;;;;;;8390358;28;20045;-58
2021/03/17 09:58:32;;;;;;;0.65;0.60;;;19.00;32.00;;;;;;8390419;28;20119;-58
2021/03/17 10:02:33;;;;;;;1.20;0.83;;;19.00;32.00;;;;;;8388448;28;20114;-58
2021/03/17 10:06:39;;;;;;;1.00;0.90;;;19.00;32.00;;;;;;8394605;28;20090;-58
2021/03/17 10:10:40;;;;;;;0.60;0.60;;;19.00;32.10;;;;;;8392300;28;20032;-58
2021/03/17 10:14:52;;;;;;;0.97;0.90;;;19.00;32.00;;;;;;8388304;28;20489;-58
2021/03/17 10:18:53;;;;;;;0.50;0.50;;;19.10;32.00;;;;;;8390077;28;20037;-57
2021/03/17 10:22:58;;;;;;;1.47;0.63;;;19.10;32.00;;;;;;8388136;28;20039;-57
2021/03/17 10:27:01;;;;;;;0.60;0.50;;;19.10;32.00;;;;;;8394370;28;20089;-58
2021/03/17 10:31:02;;;;;;;0.52;0.52;;;19.20;32.00;;;;;;8390064;28;20049;-58
2021/03/17 10:35:05;;;;;;;0.70;0.70;;;19.20;32.00;;;;;;8392064;28;20048;-58
2021/03/17 10:39:06;;;;;;;0.77;0.77;;;19.20;32.00;;;;;;8395595;28;20028;-57
2021/03/17 10:43:13;;;;;;;0.50;0.50;;;19.20;32.00;;;;;;8396663;28;20068;-58
2021/03/17 10:47:15;;;;;;;0.85;0.70;;;19.20;31.90;;;;;;8398359;28;20032;-57
2021/03/17 10:51:16;;;;;;;0.68;0.55;;;19.30;32.00;;;;;;8395509;28;20397;-57
2021/03/17 10:55:20;;;;;;;0.90;0.80;;;19.30;32.00;;;;;;8395429;28;20051;-58
2021/03/17 10:59:28;;;;;;;1.02;0.77;;;19.30;32.00;;;;;;8393610;28;20033;-58
2021/03/17 11:03:40;;;;;;;1.95;0.73;;;19.30;32.00;;;;;;8399687;28;20025;-58
2021/03/17 11:07:56;;;;;;;0.52;0.52;;;19.40;32.00;;;;;;8394980;28;20064;-58
2021/03/17 11:11:56;;;;;;;0.90;0.77;;;19.40;32.00;;;;;;8393031;28;20382;-58
2021/03/17 11:15:59;;;;;;;0.77;0.60;;;19.40;32.00;;;;;;8394851;28;20048;-58
2021/03/17 11:20:00;;;;;;;0.70;0.60;;;19.40;32.00;;;;;;8392966;28;20033;-58
2021/03/17 11:24:03;;;;;;;2.00;0.60;;;19.40;32.00;;;;;;8398958;28;20071;-58
2021/03/17 11:28:12;;;;;;;1.52;0.63;;;19.50;31.90;;;;;;8394546;28;20032;-57
2021/03/17 11:32:12;;;;;;;2.17;0.75;;;19.50;31.90;;;;;;8392882;28;20032;-58
2021/03/17 11:36:13;;;;;;;0.93;0.60;;;19.50;31.90;;;;;;8394063;28;20417;-58
2021/03/17 11:40:13;;;;;;;1.80;0.50;;;19.50;31.90;;;;;;8398364;28;20056;-58
2021/03/17 11:44:16;;;;;;;0.73;0.70;;;19.50;31.90;;;;;;8392605;28;20032;-58
2021/03/17 11:48:17;;;;;;;0.50;0.50;;;19.50;31.90;;;;;;8393629;28;20067;-58
2021/03/17 11:52:17;;;;;;;0.50;0.50;;;19.60;31.90;;;;;;8393710;28;20098;-58
2021/03/17 11:56:19;;;;;;;0.60;0.57;;;19.60;31.90;;;;;;8391934;28;20056;-58
2021/03/17 12:00:20;;;;;;;1.02;1.00;;;19.60;31.90;;;;;;8397584;28;20037;-58
2021/03/17 12:04:20;;;;;;;0.60;0.60;;;19.60;31.90;;;;;;8393222;28;20029;-58
2021/03/17 12:08:21;;;;;;;0.60;0.60;;;19.60;31.90;;;;;;8392081;28;20044;-58
2021/03/17 12:12:22;;;;;;;0.65;0.65;;;19.60;31.90;;;;;;8392891;28;20536;-58
2021/03/17 12:16:22;;;;;;;0.70;0.60;;;19.60;31.90;;;;;;8397305;28;20044;-58
2021/03/17 12:20:26;;;;;;;0.73;0.70;;;19.60;31.90;;;;;;8391245;28;20089;-58
2021/03/17 12:24:26;;;;;;;0.50;0.50;;;19.70;31.90;;;;;;8393009;28;20119;-58
2021/03/17 12:28:27;;;;;;;0.60;0.60;;;19.70;32.30;;;;;;8392731;28;20044;-58
2021/03/17 12:32:28;;;;;;;0.47;0.47;;;19.70;31.80;;;;;;8390048;28;20271;-59
2021/03/17 12:36:28;;;;;;;1.83;0.70;;;19.70;31.80;;;;;;8396557;28;20049;-58
2021/03/17 12:40:30;;;;;;;1.30;0.60;;;19.70;31.80;;;;;;8391790;28;20028;-59
2021/03/17 12:44:30;;;;;;;;;;;19.70;31.70;;;;;;8390428;28;20098;-58
2021/03/17 12:48:32;;;;;;;0.80;0.60;;;19.70;31.70;;;;;;8391233;28;19908;-58
2021/03/17 12:52:33;;;;;;;0.50;0.50;;;19.70;31.70;;;;;;8395914;28;20033;-58
2021/03/17 12:56:33;;;;;;;0.53;0.53;;;19.70;31.70;;;;;;8389038;28;20106;-58
2021/03/17 13:00:34;;;;;;;0.50;0.50;;;19.70;31.70;;;;;;8392058;28;20037;-58
2021/03/17 13:04:35;;;;;;;0.40;0.40;;;19.70;32.20;;;;;;8391189;28;20450;-58
2021/03/17 13:08:36;;;;;;;0.63;0.50;;;19.70;31.70;;;;;;8394017;28;20035;-58
2021/03/17 13:12:37;;;;;;;0.88;0.50;;;19.70;31.70;;;;;;8391044;28;20040;-58
2021/03/17 13:16:38;;;;;;;0.82;0.70;;;19.80;31.80;;;;;;8390982;28;20098;-58
2021/03/17 13:20:39;;;;;;;0.60;0.43;;;19.80;31.80;;;;;;8389114;28;20037;-58
2021/03/17 13:24:40;;;;;;;0.70;0.70;;;19.80;31.80;;;;;;8390693;28;20055;-58
2021/03/17 13:28:41;;;;;;;0.50;0.50;;;19.80;31.80;;;;;;8394609;28;20098;-58
2021/03/17 13:32:42;;;;;;;1.47;0.50;;;19.80;31.80;;;;;;8389679;28;20472;-58
2021/03/17 13:36:42;;;;;;;0.85;0.60;;;19.80;31.80;;;;;;8390258;28;20114;-58
2021/03/17 13:40:45;;;;;;;0.53;0.40;;;19.90;31.80;;;;;;8390825;28;20033;-58
2021/03/17 13:44:45;;;;;;;0.50;0.50;;;19.90;31.80;;;;;;8393465;28;20075;-58
2021/03/17 13:48:46;;;;;;;0.73;0.50;;;19.90;31.80;;;;;;8390237;28;20537;-56
2021/03/17 13:52:47;;;;;;;0.63;0.60;;;20.00;31.80;;;;;;8408790;28;20127;-56
2021/03/17 13:56:48;;;;;;;0.70;0.70;;;20.00;31.80;;;;;;8413179;28;20067;-58
2021/03/17 14:00:49;;;;;;;0.60;0.60;;;20.00;31.80;;;;;;8390594;28;20481;-58
2021/03/17 14:04:49;;;;;;;0.50;0.50;;;20.00;31.80;;;;;;8392911;28;20043;-58
2021/03/17 14:08:50;;;;;;;0.80;0.80;;;20.00;31.70;;;;;;8393880;28;20037;-58
2021/03/17 14:12:51;;;;;;;0.80;0.60;;;20.00;31.70;;;;;;8396952;28;20470;-58
2021/03/17 14:16:51;;;;;;;0.93;0.63;;;20.00;31.70;;;;;;8393478;28;20044;-58
2021/03/17 14:20:53;;;;;;;0.60;0.50;;;20.00;31.70;;;;;;8400766;28;20063;-58
2021/03/17 14:24:53;;;;;;;;;;;20.00;31.70;;;;;;8396517;28;20040;-58
2021/03/17 14:28:54;;;;;;;0.87;0.70;;;20.10;31.70;;;;;;8394905;28;19919;-58
2021/03/17 14:32:54;;;;;;;0.60;0.60;;;20.10;31.70;;;;;;8403548;28;20028;-58
2021/03/17 14:36:55;;;;;;;0.40;0.40;;;20.10;31.70;;;;;;8416453;28;20131;-58
2021/03/17 14:40:55;;;;;;;1.83;0.80;;;20.10;31.70;;;;;;8393882;28;20093;-58
2021/03/17 14:44:56;;;;;;;0.60;0.60;;;20.10;31.70;;;;;;8395613;28;20035;-58
2021/03/17 14:48:56;;;;;;;0.80;0.63;;;20.10;31.60;;;;;;8395518;28;20124;-58
2021/03/17 14:52:57;;;;;;;0.73;0.70;;;20.20;31.70;;;;;;8393301;28;20032;-58
2021/03/17 14:56:58;;;;;;;0.83;0.70;;;20.20;31.70;;;;;;8399675;28;20117;-58
2021/03/17 15:01:00;;;;;;;0.60;0.60;;;20.20;31.70;;;;;;8395605;28;20033;-58
2021/03/17 15:05:00;;;;;;;0.65;0.60;;;20.20;31.70;;;;;;8391161;28;20033;-57
2021/03/17 15:09:01;;;;;;;0.57;0.50;;;20.20;31.60;;;;;;8394968;28;20041;-58
2021/03/17 15:13:01;;;;;;;0.60;0.60;;;20.20;31.60;;;;;;8398859;28;20043;-56
2021/03/17 15:17:02;;;;;;;0.60;0.60;;;20.20;31.60;;;;;;8392746;28;20048;-56
2021/03/17 15:21:03;;;;;;;0.60;0.50;;;20.20;31.60;;;;;;8391436;28;20120;-58
2021/03/17 15:25:04;;;;;;;;;;;20.20;31.60;;;;;;8394669;28;20490;-56
2021/03/17 15:29:06;;;;;;;0.40;0.40;;;20.30;31.60;;;;;;8396369;28;19927;-57
2021/03/17 15:33:06;;;;;;;;;;;20.30;31.60;;;;;;8394751;28;20135;-58
2021/03/17 15:37:07;;;;;;;0.60;0.60;;;20.30;31.60;;;;;;8393598;28;19920;-57
2021/03/17 15:41:08;;;;;;;0.87;0.60;;;20.30;31.60;;;;;;8392787;28;20451;-58
2021/03/17 15:45:11;;;;;;;0.83;0.43;;;20.30;31.60;;;;;;8393275;28;20624;-57
2021/03/17 15:49:13;;;;;;;0.40;0.40;;;20.30;31.60;;;;;;8397791;28;20048;-58
2021/03/17 15:53:14;;;;;;;0.68;0.68;;;20.30;31.60;;;;;;8391857;28;20130;-58
2021/03/17 15:57:14;;;;;;;;;;;20.30;31.60;;;;;;8393847;28;20139;-58
2021/03/17 16:01:15;;;;;;;0.50;0.50;;;20.30;31.60;;;;;;8397123;28;19970;-58
2021/03/17 16:05:16;;;;;;;0.70;0.50;;;20.30;31.60;;;;;;8395734;28;20458;-58
2021/03/17 16:09:17;;;;;;;0.63;0.60;;;20.30;32.10;;;;;;8392803;28;20025;-58
2021/03/17 16:13:17;;;;;;;0.50;0.50;;;20.30;31.60;;;;;;8392386;28;20398;-58
2021/03/17 16:17:18;;;;;;;2.53;0.50;;;20.30;31.60;;;;;;8390346;28;20072;-58
2021/03/17 16:21:19;;;;;;;0.83;0.77;;;20.30;31.60;;;;;;8392281;28;20025;-58
2021/03/17 16:25:21;;;;;;;1.48;0.50;;;20.30;31.50;;;;;;8396702;28;20108;-58
2021/03/17 16:29:21;;;;;;;0.75;0.70;;;20.40;31.60;;;;;;8390445;28;20040;-58
2021/03/17 16:33:22;;;;;;;0.67;0.50;;;20.40;31.60;;;;;;8391083;28;20503;-58
2021/03/17 16:37:23;;;;;;;0.40;0.40;;;20.30;31.50;;;;;;8391662;28;20409;-58
2021/03/17 16:41:23;;;;;;;0.70;0.60;;;20.30;31.50;;;;;;8389881;28;20033;-58
2021/03/17 16:45:24;;;;;;;1.00;0.80;;;20.30;31.50;;;;;;8387236;28;20275;-58
2021/03/17 16:49:24;;;;;;;0.60;0.60;;;20.30;31.60;;;;;;8391736;28;20486;-58
2021/03/17 16:53:25;;;;;;;0.53;0.53;;;20.30;31.50;;;;;;8389885;28;20430;-58
2021/03/17 16:57:26;;;;;;;1.43;0.80;;;20.30;31.60;;;;;;8396498;28;20154;-57
2021/03/17 17:01:26;;;;;;;0.70;0.60;;;20.30;31.50;;;;;;8391278;28;20029;-58
2021/03/17 17:05:27;;;;;;;0.50;0.50;;;20.40;31.60;;;;;;8389379;28;20033;-58
2021/03/17 17:09:27;;;;;;;0.50;0.50;;;20.30;31.50;;;;;;8390823;28;20043;-58
2021/03/17 17:13:28;;;;;;;0.83;0.73;;;20.40;31.60;;;;;;8392688;28;20618;-58
2021/03/17 17:17:29;;;;;;;0.83;0.70;;;20.40;31.60;;;;;;8401321;27;20480;-58
2021/03/17 17:21:29;;;;;;;1.00;0.60;;;20.40;31.50;;;;;;8416949;28;20075;-57
2021/03/17 17:25:30;;;;;;;0.63;0.63;;;20.40;31.50;;;;;;8423150;28;20481;-58
2021/03/17 17:29:30;;;;;;;0.80;0.50;;;20.40;31.50;;;;;;8391963;28;20406;-57
2021/03/17 17:33:31;;;;;;;0.63;0.60;;;20.40;31.50;;;;;;8395073;28;20039;-58
2021/03/17 17:37:32;;;;;;;0.65;0.65;;;20.40;31.50;;;;;;8390861;28;20055;-58
2021/03/17 17:41:32;;;;;;;0.90;0.50;;;20.40;31.50;;;;;;8389063;28;20037;-58
2021/03/17 17:45:33;;;;;;;0.60;0.60;;;20.30;31.50;;;;;;8397224;28;20489;-58
2021/03/17 17:49:34;;;;;;;0.70;0.70;;;20.40;31.50;;;;;;8398914;28;20071;-57
2021/03/17 17:53:34;;;;;;;0.70;0.70;;;20.40;31.50;;;;;;8391907;28;20278;-58
2021/03/17 17:57:36;;;;;;;0.77;0.67;;;20.30;31.60;;;;;;8394445;28;20029;-57
2021/03/17 18:01:36;;;;;;;1.35;0.70;;;20.30;31.60;;;;;;8390248;28;20037;-59
2021/03/17 18:05:37;;;;;;;2.88;0.70;;;20.40;31.70;;;;;;8388597;28;20093;-58
2021/03/17 18:09:38;;;;;;;1.00;0.83;;;20.50;31.70;;;;;;8394834;28;20037;-59
2021/03/17 18:13:38;;;;;;;2.37;0.73;;;20.50;31.80;;;;;;8390051;28;20044;-59
2021/03/17 18:17:39;;;;;;;0.70;0.70;;;20.50;31.80;;;;;;8388195;28;20498;-58
2021/03/17 18:21:40;;;;;;;2.15;1.15;;;20.50;31.80;;;;;;8389766;28;20438;-59
2021/03/17 18:25:41;;;;;;;1.10;0.80;;;20.60;31.80;;;;;;8392536;28;20028;-58
2021/03/17 18:29:42;;;;;;;;;;;20.60;31.80;;;;;;8388307;28;20086;-58
2021/03/17 18:33:43;;;;;;;1.10;0.70;;;20.70;31.80;;;;;;8389778;28;19916;-58
2021/03/17 18:37:44;;;;;;;3.20;1.27;;;20.70;31.80;;;;;;8389632;28;20146;-57
2021/03/17 18:41:45;;;;;;;1.70;0.95;;;20.80;32.00;;;;;;8385456;28;20120;-58
2021/03/17 18:45:46;;;;;;;1.60;1.00;;;20.80;32.30;;;;;;8391600;28;20040;-56
2021/03/17 18:49:46;;;;;;;2.20;0.90;;;20.90;31.60;;;;;;8379161;27;20485;-52
2021/03/17 18:53:47;;;;;;;1.77;0.90;;;21.00;31.50;;;;;;8387364;28;20125;-56
2021/03/17 18:57:49;;;;;;;1.60;0.93;;;21.00;31.40;;;;;;8388700;28;20074;-54
2021/03/17 19:01:50;;;;;;;4.70;1.35;;;21.10;31.40;;;;;;8398297;28;20041;-54
2021/03/17 19:05:50;;;;;;;5.07;0.80;;;21.20;31.40;;;;;;8389117;28;20087;-53
2021/03/17 19:09:51;;;;;;;5.53;1.67;;;21.20;31.30;;;;;;8400170;28;20032;-55
2021/03/17 19:13:52;;;;;;;2.47;0.95;;;21.30;31.30;;;;;;8386605;28;20106;-53
2021/03/17 19:17:54;;;;;;;2.67;0.97;;;21.40;31.90;;;;;;8393537;27;20040;-55
2021/03/17 19:21:55;;;;;;;6.80;1.10;;;21.40;31.30;;;;;;8388287;28;20271;-54
2021/03/17 19:25:56;;;;;;;2.60;1.10;;;21.40;31.30;;;;;;8384670;28;20075;-55
2021/03/17 19:29:56;;;;;;;3.78;1.02;;;21.40;31.20;;;;;;8387424;28;20036;-56
2021/03/17 19:34:00;;;;;;;5.23;1.10;;;21.50;31.30;;;;;;8388124;28;20429;-58
2021/03/17 19:38:01;;;;;;;1.83;1.20;;;21.50;31.20;;;;;;8390138;28;20063;-57
2021/03/17 19:42:02;;;;;;;3.50;1.83;;;21.50;31.10;;;;;;8387903;27;20074;-57
2021/03/17 19:46:04;;;;;;;;;;;21.60;31.70;;;;;;8384290;28;20063;-58
2021/03/17 19:50:09;;;;;;;2.28;1.08;;;21.60;31.10;;;;;;8385504;28;20003;-53
2021/03/17 19:54:10;;;;;;;3.47;1.10;;;21.60;31.10;;;;;;8390667;28;20094;-57
2021/03/17 19:58:11;;;;;;;6.93;1.10;;;21.60;31.00;;;;;;8385362;28;20063;-54
2021/03/17 20:02:12;;;;;;;7.85;1.00;;;21.70;31.10;;;;;;8385204;28;20036;-55
2021/03/17 20:06:14;;;;;;;1.95;1.00;;;21.70;31.00;;;;;;8386007;28;20375;-56
2021/03/17 20:10:21;;;;;;;3.15;1.15;;;21.80;31.10;;;;;;8386379;28;20044;-56
2021/03/17 20:14:22;;;;;;;3.08;0.90;;;21.80;31.10;;;;;;8383102;28;20055;-56
2021/03/17 20:18:22;;;;;;;2.87;1.30;;;21.80;31.10;;;;;;8385926;28;20396;-55
2021/03/17 20:22:24;;;;;;;2.57;1.20;;;21.80;31.10;;;;;;8385132;28;20071;-50
2021/03/17 20:26:27;;;;;;;1.00;0.80;;;21.90;31.10;;;;;;8384254;28;20045;-55
2021/03/17 20:30:34;;;;;;;3.10;1.00;;;21.90;31.00;;;;;;8390168;28;20563;-54
2021/03/17 20:34:36;;;;;;;4.53;1.55;;;21.90;31.00;;;;;;8385555;28;20523;-57
2021/03/17 20:38:37;;;;;;;2.90;1.00;;;22.00;31.60;;;;;;8383386;28;20032;-55
2021/03/17 20:42:38;;;;;;;2.63;1.00;;;22.00;31.00;;;;;;8385190;28;20033;-57
2021/03/17 20:46:38;;;;;;;6.55;1.10;;;22.00;31.00;;;;;;8385429;28;20169;-55
2021/03/17 20:50:40;;;;;;;4.03;1.30;;;22.00;31.10;;;;;;8384839;28;20025;-56
2021/03/17 20:54:40;;;;;;;;;;;22.00;31.10;;;;;;8387045;28;20052;-57
2021/03/17 20:58:41;;;;;;;1.53;1.00;;;22.00;31.10;;;;;;8379479;28;19955;-55
2021/03/17 21:02:42;;;;;;;2.10;1.20;;;22.00;31.10;;;;;;8383194;28;20035;-56
2021/03/17 21:06:45;;;;;;;;;;;22.00;31.20;;;;;;8389747;28;20033;-56